createdAt,value
2022-11-17T00:04:29.846Z,3.50
2022-11-17T00:09:32.470Z,2.90
2022-11-17T00:14:37.481Z,2.60
2022-11-17T00:19:45.356Z,2.70
2022-11-17T00:24:48.882Z,2.80
2022-11-17T00:30:26.996Z,1.70
2022-11-17T00:35:29.531Z,4.00
2022-11-17T00:40:32.083Z,3.80
2022-11-17T00:45:34.689Z,3.30
2022-11-17T00:50:37.292Z,3.50
2022-11-17T00:55:42.555Z,3.50
2022-11-17T01:00:45.133Z,3.30
2022-11-17T01:05:47.719Z,3.20
2022-11-17T01:10:50.353Z,2.90
2022-11-17T01:15:52.986Z,2.00
2022-11-17T01:20:55.543Z,2.90
2022-11-17T01:26:02.413Z,2.80
2022-11-17T01:31:08.637Z,2.00
2022-11-17T01:41:32.845Z,2.90
2022-11-17T01:46:38.332Z,3.50
2022-11-17T01:51:50.713Z,3.00
2022-11-17T01:56:58.328Z,2.20
2022-11-17T02:02:01.215Z,3.60
2022-11-17T02:07:09.698Z,3.60
2022-11-17T02:12:14.155Z,2.90
2022-11-17T02:17:18.010Z,1.50
2022-11-17T02:23:30.626Z,2.50
2022-11-17T02:28:47.592Z,3.80
2022-11-17T02:33:50.434Z,3.00
2022-11-17T02:39:00.908Z,3.70
2022-11-17T02:44:12.836Z,2.70
2022-11-17T02:49:18.301Z,2.70
2022-11-17T02:54:23.185Z,3.60
2022-11-17T02:59:31.191Z,3.20
2022-11-17T03:04:46.871Z,3.80
2022-11-17T03:10:03.781Z,4.30
2022-11-17T03:20:17.348Z,3.80
2022-11-17T03:25:23.513Z,2.30
2022-11-17T03:30:30.863Z,3.30
2022-11-17T03:35:43.936Z,3.30
2022-11-17T03:40:52.877Z,2.90
2022-11-17T03:45:58.892Z,3.40
2022-11-17T03:51:09.215Z,3.40
2022-11-17T03:56:16.682Z,3.40
2022-11-17T04:01:21.207Z,4.20
2022-11-17T04:06:23.906Z,3.30
2022-11-17T04:11:29.403Z,3.20
2022-11-17T04:16:31.973Z,4.40
2022-11-17T04:21:34.731Z,5.00
2022-11-17T04:26:40.230Z,5.10
2022-11-17T04:31:42.792Z,5.20
2022-11-17T04:36:45.548Z,5.00
2022-11-17T04:41:52.074Z,3.60
2022-11-17T04:46:55.786Z,3.20
2022-11-17T04:52:01.156Z,4.10
2022-11-17T04:57:03.778Z,4.80
2022-11-17T05:02:06.620Z,4.40
2022-11-17T05:07:09.456Z,4.30
2022-11-17T05:12:15.052Z,3.80
2022-11-17T05:17:17.666Z,4.50
2022-11-17T05:22:25.915Z,4.80
2022-11-17T05:27:28.639Z,6.30
2022-11-17T05:32:31.436Z,3.40
2022-11-17T05:37:33.976Z,2.80
2022-11-17T05:42:36.595Z,5.20
2022-11-17T05:47:39.534Z,4.00
2022-11-17T05:52:42.073Z,3.70
2022-11-17T05:57:45.088Z,3.60
2022-11-17T06:02:52.864Z,5.70
2022-11-17T06:07:57.876Z,5.30
2022-11-17T06:13:00.524Z,2.70
2022-11-17T06:18:08.007Z,6.40
2022-11-17T06:23:12.056Z,5.90
2022-11-17T06:28:19.411Z,6.10
2022-11-17T06:33:22.162Z,6.10
2022-11-17T06:38:24.762Z,6.60
2022-11-17T06:43:27.327Z,6.20
2022-11-17T06:48:30.270Z,4.20
2022-11-17T06:53:34.296Z,5.80
2022-11-17T06:58:39.565Z,5.00
2022-11-17T07:03:43.283Z,7.20
2022-11-17T07:08:46.203Z,4.10
2022-11-17T07:13:48.771Z,4.80
2022-11-17T07:18:53.001Z,3.90
2022-11-17T07:23:55.628Z,7.30
2022-11-17T07:28:58.332Z,7.80
2022-11-17T07:34:00.846Z,4.70
2022-11-17T07:39:05.336Z,6.80
2022-11-17T07:44:07.910Z,11.00
2022-11-17T07:49:10.675Z,8.60
2022-11-17T07:54:13.218Z,7.20
2022-11-17T07:59:21.038Z,7.30
2022-11-17T08:04:24.021Z,7.20
2022-11-17T08:09:26.544Z,7.10
2022-11-17T08:14:29.746Z,6.40
2022-11-17T08:19:32.509Z,5.40
2022-11-17T08:24:35.221Z,7.70
2022-11-17T08:29:38.158Z,4.90
2022-11-17T08:34:41.127Z,8.50
2022-11-17T08:39:43.684Z,6.10
2022-11-17T08:44:46.530Z,6.70
2022-11-17T08:49:49.131Z,4.20
2022-11-17T08:54:52.436Z,4.60
2022-11-17T08:59:55.097Z,8.90
2022-11-17T09:04:57.619Z,5.90
2022-11-17T09:10:01.115Z,6.40
2022-11-17T09:15:05.617Z,7.50
2022-11-17T09:20:08.991Z,4.70
2022-11-17T09:25:13.672Z,4.90
2022-11-17T09:30:21.780Z,5.20
2022-11-17T09:35:24.403Z,7.90
2022-11-17T09:40:34.648Z,6.30
2022-11-17T09:45:40.297Z,4.70
2022-11-17T09:50:45.157Z,5.40
2022-11-17T09:55:54.263Z,6.20
2022-11-17T10:00:57.664Z,5.60
2022-11-17T10:06:05.867Z,5.50
2022-11-17T10:11:32.925Z,5.30
2022-11-17T10:16:40.794Z,3.60
2022-11-17T10:21:44.480Z,5.00
2022-11-17T10:26:49.317Z,5.20
2022-11-17T10:31:52.070Z,5.60
2022-11-17T10:36:54.775Z,4.90
2022-11-17T10:41:57.453Z,6.30
2022-11-17T10:47:04.146Z,4.00
2022-11-17T10:52:08.758Z,6.20
2022-11-17T10:57:28.894Z,5.70
2022-11-17T11:02:35.613Z,5.40
2022-11-17T11:07:39.324Z,6.50
2022-11-17T11:12:45.587Z,4.30
2022-11-17T11:18:13.945Z,5.70
2022-11-17T11:23:20.542Z,5.80
2022-11-17T11:28:27.467Z,4.70
2022-11-17T11:33:30.984Z,4.70
2022-11-17T11:38:37.418Z,5.20
2022-11-17T11:43:43.227Z,3.70
2022-11-17T11:48:48.121Z,5.20
2022-11-17T11:54:01.029Z,4.40
2022-11-17T11:59:03.600Z,5.70
2022-11-17T12:04:19.917Z,3.80
2022-11-17T12:09:26.299Z,5.10
2022-11-17T12:15:03.665Z,4.80
2022-11-17T12:20:29.124Z,1.90
2022-11-17T12:25:36.037Z,3.50
2022-11-17T12:30:43.512Z,3.70
2022-11-17T12:35:47.242Z,4.50
2022-11-17T12:40:51.464Z,2.40
2022-11-17T12:46:03.986Z,7.50
2022-11-17T12:51:11.583Z,6.70
2022-11-17T12:56:20.045Z,12.80
2022-11-17T13:01:27.614Z,7.10
2022-11-17T13:06:37.500Z,13.40
2022-11-17T13:11:40.145Z,9.60
2022-11-17T13:16:46.835Z,8.40
2022-11-17T13:21:49.417Z,4.60
2022-11-17T13:26:59.422Z,7.60
2022-11-17T13:32:11.158Z,7.10
2022-11-17T13:37:19.218Z,4.40
2022-11-17T13:42:25.192Z,4.70
2022-11-17T13:47:47.633Z,8.30
2022-11-17T13:53:10.424Z,9.70
2022-11-17T13:58:23.332Z,6.40
2022-11-17T14:03:33.205Z,4.90
2022-11-17T14:08:37.654Z,9.30
2022-11-17T14:13:41.278Z,8.40
2022-11-17T14:18:55.840Z,7.20
2022-11-17T14:24:04.540Z,7.20
2022-11-17T14:29:13.555Z,5.30
2022-11-17T14:34:16.782Z,6.80
2022-11-17T14:39:20.007Z,11.20
2022-11-17T14:44:23.233Z,26.70
2022-11-17T14:49:25.789Z,22.90
2022-11-17T14:54:28.971Z,23.20
2022-11-17T14:59:31.555Z,18.10
2022-11-17T15:05:07.245Z,17.30
2022-11-17T15:10:10.289Z,20.00
2022-11-17T15:15:12.957Z,17.20
2022-11-17T15:20:15.675Z,16.30
2022-11-17T15:25:18.297Z,21.70
2022-11-17T15:30:20.960Z,15.50
2022-11-17T15:35:24.440Z,16.40
2022-11-17T15:40:26.999Z,16.90
2022-11-17T15:45:29.699Z,14.00
2022-11-17T15:50:32.209Z,20.90
2022-11-17T15:55:35.271Z,25.50
2022-11-17T16:07:18.342Z,20.30
2022-11-17T16:12:20.923Z,15.50
2022-11-17T16:17:23.539Z,16.90
2022-11-17T16:22:27.011Z,17.00
2022-11-17T16:27:29.579Z,13.20
2022-11-17T16:32:32.189Z,11.70
2022-11-17T16:37:34.722Z,7.90
2022-11-17T16:42:37.269Z,10.70
2022-11-17T16:47:39.769Z,10.80
2022-11-17T16:52:43.265Z,11.30
2022-11-17T16:57:45.848Z,13.00
2022-11-17T17:02:50.019Z,14.30
2022-11-17T17:07:52.684Z,14.60
2022-11-17T17:12:55.264Z,24.20
2022-11-17T17:17:57.829Z,30.50
2022-11-17T17:23:03.201Z,23.80
2022-11-17T17:28:05.990Z,21.60
2022-11-17T17:33:08.517Z,27.40
2022-11-17T17:38:11.081Z,26.30
2022-11-17T17:43:13.667Z,24.40
2022-11-17T17:48:16.232Z,21.20
2022-11-17T17:53:18.781Z,15.80
2022-11-17T17:58:21.331Z,14.80
2022-11-17T18:03:24.026Z,17.20
2022-11-17T18:08:26.796Z,19.90
2022-11-17T18:13:33.154Z,17.10
2022-11-17T18:18:36.618Z,16.80
2022-11-17T18:23:41.966Z,15.00
2022-11-17T18:28:51.666Z,19.00
2022-11-17T18:33:58.164Z,17.40
2022-11-17T18:39:00.745Z,17.50
2022-11-17T18:44:03.510Z,21.10
2022-11-17T18:49:06.052Z,14.20
2022-11-17T18:54:12.047Z,14.90
2022-11-17T18:59:15.308Z,14.10
2022-11-17T19:04:18.240Z,20.20
2022-11-17T19:09:20.920Z,14.90
2022-11-17T19:14:23.437Z,17.80
2022-11-17T19:19:26.465Z,13.50
2022-11-17T19:24:29.019Z,14.70
2022-11-17T19:29:31.715Z,16.90
2022-11-17T19:34:34.343Z,16.70
2022-11-17T19:39:36.991Z,12.80
2022-11-17T19:44:39.536Z,14.20
2022-11-17T19:49:43.154Z,6.90
2022-11-17T19:54:45.674Z,16.40
2022-11-17T19:59:48.239Z,15.60
2022-11-17T20:04:50.751Z,11.50
2022-11-17T20:09:53.330Z,13.20
2022-11-17T20:14:55.871Z,18.60
2022-11-17T20:19:58.431Z,14.80
2022-11-17T20:25:03.650Z,16.40
2022-11-17T20:30:10.949Z,6.40
2022-11-17T20:35:17.447Z,12.50
2022-11-17T20:40:19.991Z,9.50
2022-11-17T20:45:23.093Z,12.20
2022-11-17T20:50:25.955Z,11.00
2022-11-17T20:55:28.740Z,10.60
2022-11-17T21:00:31.281Z,16.10
2022-11-17T21:05:33.943Z,14.70
2022-11-17T21:10:36.983Z,6.00
2022-11-17T21:15:39.704Z,11.80
2022-11-17T21:20:44.489Z,6.80
2022-11-17T21:25:49.249Z,10.10
2022-11-17T21:30:51.892Z,7.40
2022-11-17T21:36:00.382Z,10.70
2022-11-17T21:41:06.045Z,8.90
2022-11-17T21:46:12.479Z,10.60
2022-11-17T21:56:17.568Z,16.10
2022-11-17T22:01:20.163Z,16.50
2022-11-17T22:06:24.360Z,11.10
2022-11-17T22:11:32.319Z,10.80
2022-11-17T22:16:37.044Z,6.10
2022-11-17T22:21:40.491Z,9.20
2022-11-17T22:26:46.557Z,8.70
2022-11-17T22:31:50.515Z,10.10
2022-11-17T22:36:53.115Z,14.00
2022-11-17T22:41:55.674Z,14.10
2022-11-17T22:46:58.172Z,7.90
2022-11-17T22:52:03.634Z,9.00
2022-11-17T22:57:06.193Z,8.40
2022-11-17T23:02:08.787Z,9.80
2022-11-17T23:07:11.479Z,8.50
2022-11-17T23:12:14.466Z,6.80
2022-11-17T23:17:19.525Z,8.90
2022-11-17T23:22:25.313Z,8.20
2022-11-17T23:27:27.859Z,7.80
2022-11-17T23:32:30.455Z,5.80
2022-11-17T23:37:33.004Z,8.00
2022-11-17T23:42:41.629Z,9.10
2022-11-17T23:47:45.615Z,6.20
2022-11-17T23:52:48.170Z,8.30
2022-11-17T23:57:50.690Z,6.30
